PILOTS ONLINE: 364    ATC ONLINE: 46

KSTS

Charles M. Schulz Sonoma County Airport

Location

IATA STS
City Santa Rosa
Country  United States
Latitude 38° 30' 32" N
Longitude 122° 48' 46" W
Elevation 128 ft
Type Medium Airport

Map

Weather

METAR
2014/10/26 01:53
KSTS 260153Z 20005KT 10SM CLR 16/13 A3004 RMK AO2 SLP165 T01560128
TAF
2014/10/25 20:06
TAF 
      AMD KSTS 252003Z 2520/2618 22012G22KT P6SM -SHRA BKN040 
      TEMPO 2520/2524 -TSRA BKN025CB 
     FM260300 18005KT P6SM BKN050 
     FM260900 00000KT 5SM BR OVC010 
     FM261200 VRB04KT 1/2SM FG VV003

Runways

01/19 5002 ft / 100 ft
14/32 5115 ft / 150 ft

Outbound flights

Callsign Flying to Pilot ATD/STD ETA Aircraft

Inbound flights

Callsign Flying from Pilot ATD ETA Aircraft